Time;durP1;ratioP1;P1;durP2;ratioP2;P2;SDS_P1;SDS_P2;PMS_P1;PMS_P2;Temp;Humidity;BMP_temperature;BMP_pressure;BME280_temperature;BME280_humidity;BME280_pressure;Samples;Min_cycle;Max_cycle;Signal;HPM_P1;HPM_P2
2020/12/12 00:00:35;;;;;;;61.57;30.57;;;3.60;99.90;;;;;;4992174;28;20573;-49
2020/12/12 00:03:02;;;;;;;59.97;27.20;;;3.60;99.90;;;;;;4999037;28;20638;-50
2020/12/12 00:05:30;;;;;;;63.03;30.37;;;3.60;99.90;;;;;;5008916;28;20558;-49
2020/12/12 00:07:57;;;;;;;55.80;27.27;;;3.60;99.90;;;;;;5002075;28;21038;-49
2020/12/12 00:10:26;;;;;;;63.03;30.60;;;3.70;99.90;;;;;;5005379;28;21051;-49
2020/12/12 00:12:53;;;;;;;57.17;29.20;;;3.70;99.90;;;;;;4997714;28;20491;-49
2020/12/12 00:15:21;;;;;;;62.17;30.30;;;3.70;99.90;;;;;;5003779;28;20490;-49
2020/12/12 00:17:50;;;;;;;61.60;30.13;;;3.60;99.90;;;;;;4994850;28;20501;-50
2020/12/12 00:20:17;;;;;;;61.43;30.83;;;3.70;99.90;;;;;;4999281;28;20604;-49
2020/12/12 00:22:45;;;;;;;60.23;30.10;;;3.60;99.90;;;;;;5012649;28;20851;-49
2020/12/12 00:25:12;;;;;;;59.60;29.37;;;3.60;99.90;;;;;;5006948;28;20484;-48
2020/12/12 00:27:39;;;;;;;56.63;29.40;;;3.60;99.90;;;;;;5006588;28;20511;-49
2020/12/12 00:30:07;;;;;;;62.37;29.10;;;3.60;99.90;;;;;;5007514;28;21012;-49
2020/12/12 00:32:35;;;;;;;64.73;28.93;;;3.60;99.90;;;;;;5007383;28;20472;-49
2020/12/12 00:35:03;;;;;;;62.57;29.93;;;3.60;99.90;;;;;;5006916;28;20872;-49
2020/12/12 00:37:30;;;;;;;57.73;30.77;;;3.60;99.90;;;;;;5007248;28;20486;-49
2020/12/12 00:39:58;;;;;;;63.37;30.33;;;3.60;99.90;;;;;;5008399;28;20484;-49
2020/12/12 00:42:25;;;;;;;62.57;31.33;;;3.60;99.90;;;;;;5016946;28;20478;-49
2020/12/12 00:44:53;;;;;;;62.10;31.43;;;3.60;99.90;;;;;;5026673;28;20477;-49
2020/12/12 00:47:20;;;;;;;63.50;31.43;;;3.50;99.90;;;;;;5028144;28;20485;-50
2020/12/12 00:49:49;;;;;;;65.40;30.93;;;3.50;99.90;;;;;;5026391;28;20826;-49
2020/12/12 00:52:17;;;;;;;68.37;32.47;;;3.50;99.90;;;;;;5025016;28;20923;-49
2020/12/12 00:54:44;;;;;;;61.40;30.23;;;3.50;99.90;;;;;;5016604;28;20520;-49
2020/12/12 00:57:12;;;;;;;65.57;32.23;;;3.50;99.90;;;;;;5005410;28;20489;-49
2020/12/12 00:59:39;;;;;;;67.77;30.13;;;3.60;99.90;;;;;;5005138;28;20494;-49
2020/12/12 01:02:07;;;;;;;60.40;32.20;;;3.60;99.90;;;;;;5005249;28;20995;-49
2020/12/12 01:04:35;;;;;;;59.10;31.10;;;3.50;99.90;;;;;;5005407;28;20567;-49
2020/12/12 01:07:03;;;;;;;64.13;31.33;;;3.50;99.90;;;;;;5022814;28;20493;-49
2020/12/12 01:09:31;;;;;;;66.00;31.90;;;3.50;99.90;;;;;;5023924;28;20479;-49
2020/12/12 01:11:58;;;;;;;62.97;31.93;;;3.50;99.90;;;;;;5024874;28;20482;-49
2020/12/12 01:14:25;;;;;;;66.00;31.60;;;3.50;99.90;;;;;;5029902;28;20540;-49
2020/12/12 01:16:53;;;;;;;62.57;29.93;;;3.50;99.90;;;;;;5031764;28;20970;-49
2020/12/12 01:19:20;;;;;;;64.50;31.10;;;3.50;99.90;;;;;;5032280;28;20553;-49
2020/12/12 01:21:48;;;;;;;65.37;32.10;;;3.60;99.90;;;;;;5020413;28;21046;-49
2020/12/12 01:24:16;;;;;;;64.03;31.33;;;3.50;99.90;;;;;;5012093;28;20495;-49
2020/12/12 01:26:48;;;;;;;68.00;32.90;;;3.50;99.90;;;;;;5011673;28;20564;-49
2020/12/12 01:29:15;;;;;;;65.10;30.97;;;3.60;99.90;;;;;;5012357;28;21084;-48
2020/12/12 01:31:42;;;;;;;63.27;31.27;;;3.60;99.90;;;;;;5012046;28;20493;-50
2020/12/12 01:34:10;;;;;;;63.63;31.67;;;3.60;99.90;;;;;;5011815;28;20486;-49
2020/12/12 01:36:38;;;;;;;66.53;31.60;;;3.60;99.90;;;;;;5011625;28;20514;-49
2020/12/12 01:39:05;;;;;;;64.93;30.97;;;3.50;99.90;;;;;;5011919;28;20511;-51
2020/12/12 01:41:33;;;;;;;64.03;31.27;;;3.70;99.90;;;;;;5011893;28;21016;-49
2020/12/12 01:44:01;;;;;;;60.97;30.97;;;3.60;99.90;;;;;;5011661;28;20481;-49
2020/12/12 01:46:29;;;;;;;61.37;29.97;;;3.60;99.90;;;;;;5011219;28;20515;-49
2020/12/12 01:48:57;;;;;;;64.90;30.13;;;3.60;99.90;;;;;;5019766;28;20495;-49
2020/12/12 01:51:25;;;;;;;56.97;31.47;;;3.50;99.90;;;;;;5031607;28;20529;-49
2020/12/12 01:53:55;;;;;;;58.03;30.67;;;3.50;99.90;;;;;;5031660;28;20950;-49
2020/12/12 01:56:23;;;;;;;58.93;30.10;;;3.50;99.90;;;;;;5030357;28;20470;-48
2020/12/12 01:58:53;;;;;;;60.67;31.07;;;3.50;99.90;;;;;;5011530;28;20516;-49
2020/12/12 02:01:23;;;;;;;62.13;31.17;;;3.50;99.90;;;;;;5012185;28;20463;-49
2020/12/12 02:03:51;;;;;;;61.87;31.63;;;3.50;99.90;;;;;;5005747;28;20497;-49
2020/12/12 02:06:20;;;;;;;59.63;30.70;;;3.50;99.90;;;;;;5021788;28;20923;-49
2020/12/12 02:08:51;;;;;;;60.00;31.00;;;3.50;99.90;;;;;;5029775;28;20824;-49
2020/12/12 02:11:21;;;;;;;60.47;30.97;;;3.50;99.90;;;;;;5031329;28;20474;-49
2020/12/12 02:13:49;;;;;;;57.60;30.43;;;3.50;99.90;;;;;;5027490;28;20501;-49
2020/12/12 02:16:18;;;;;;;59.10;30.67;;;3.50;99.90;;;;;;5030912;28;20475;-49
2020/12/12 02:18:46;;;;;;;58.37;31.40;;;3.50;99.90;;;;;;5024016;28;20597;-49
2020/12/12 02:21:14;;;;;;;55.03;29.83;;;3.50;99.90;;;;;;5010866;28;20472;-49
2020/12/12 02:23:42;;;;;;;53.10;30.77;;;3.50;99.90;;;;;;5023354;28;20487;-50
2020/12/12 02:26:09;;;;;;;57.37;30.33;;;3.50;99.90;;;;;;5029644;28;20559;-49
2020/12/12 02:28:46;;;;;;;54.23;29.97;;;3.50;99.90;;;;;;5021916;28;20511;-49
2020/12/12 02:31:14;;;;;;;54.97;29.10;;;3.50;99.90;;;;;;5010781;28;20498;-48
2020/12/12 02:33:41;;;;;;;56.60;29.83;;;3.50;99.90;;;;;;5010978;28;20570;-48
2020/12/12 02:36:09;;;;;;;52.43;29.23;;;3.50;99.90;;;;;;5010472;28;20507;-49
2020/12/12 02:38:36;;;;;;;62.67;30.87;;;3.50;99.90;;;;;;5010451;28;20508;-49
2020/12/12 02:41:08;;;;;;;51.47;28.70;;;3.50;99.90;;;;;;5010448;28;20504;-49
2020/12/12 02:43:36;;;;;;;53.87;29.90;;;3.50;99.90;;;;;;4991467;28;20559;-49
2020/12/12 02:46:03;;;;;;;57.27;29.57;;;3.60;99.90;;;;;;4990604;28;20481;-48
2020/12/12 02:48:31;;;;;;;59.10;31.27;;;3.50;99.90;;;;;;4998341;28;20530;-49
2020/12/12 02:50:58;;;;;;;53.77;28.93;;;3.50;99.90;;;;;;4998337;28;20488;-49
2020/12/12 02:53:25;;;;;;;50.63;27.77;;;3.50;99.90;;;;;;4991502;28;20518;-49
2020/12/12 02:55:53;;;;;;;55.87;30.67;;;3.50;99.90;;;;;;4990617;28;20481;-49
2020/12/12 02:58:21;;;;;;;53.63;28.90;;;3.50;99.90;;;;;;4996522;28;20476;-48
2020/12/12 03:00:49;;;;;;;56.30;30.43;;;3.50;99.90;;;;;;5010026;28;21175;-49
2020/12/12 03:03:16;;;;;;;53.77;29.47;;;3.50;99.90;;;;;;5019629;28;20494;-49
2020/12/12 03:05:44;;;;;;;62.03;31.03;;;3.50;99.90;;;;;;5022322;28;20546;-49
2020/12/12 03:08:11;;;;;;;58.37;29.43;;;3.50;99.90;;;;;;5029568;28;20487;-49
2020/12/12 03:10:39;;;;;;;56.00;31.10;;;3.40;99.90;;;;;;5030225;28;20478;-48
2020/12/12 03:13:06;;;;;;;58.23;29.37;;;3.40;99.90;;;;;;5029870;28;20540;-49
2020/12/12 03:15:35;;;;;;;58.17;30.33;;;3.40;99.90;;;;;;5029526;28;20478;-49
2020/12/12 03:18:03;;;;;;;56.20;29.77;;;3.40;99.90;;;;;;5029422;28;20471;-48
2020/12/12 03:20:30;;;;;;;53.77;29.50;;;3.40;99.90;;;;;;5014367;28;20835;-48
2020/12/12 03:22:57;;;;;;;56.57;30.97;;;3.30;99.90;;;;;;5009826;28;20546;-49
2020/12/12 03:25:25;;;;;;;59.83;30.20;;;3.30;99.90;;;;;;5009979;28;20488;-48
2020/12/12 03:27:52;;;;;;;52.83;28.13;;;3.30;99.90;;;;;;5013261;28;20913;-49
2020/12/12 03:30:19;;;;;;;55.73;30.27;;;3.30;99.90;;;;;;5009825;28;20979;-48
2020/12/12 03:32:48;;;;;;;53.60;29.23;;;3.30;99.90;;;;;;5010074;28;21693;-48
2020/12/12 03:35:15;;;;;;;59.87;30.50;;;3.30;99.90;;;;;;5009662;28;20487;-48
2020/12/12 03:37:42;;;;;;;59.63;29.27;;;3.30;99.90;;;;;;5008588;28;20570;-48
2020/12/12 03:40:10;;;;;;;61.13;30.10;;;3.30;99.90;;;;;;5009256;28;20484;-48
2020/12/12 03:42:37;;;;;;;55.17;27.43;;;3.30;99.90;;;;;;5009737;28;20481;-48
2020/12/12 03:45:05;;;;;;;61.20;32.67;;;3.30;99.90;;;;;;5009124;28;20919;-48
2020/12/12 03:47:32;;;;;;;62.67;30.67;;;3.20;99.90;;;;;;5009202;28;20533;-49
2020/12/12 03:50:00;;;;;;;62.57;31.73;;;3.20;99.90;;;;;;5025916;28;20531;-48
2020/12/12 03:52:28;;;;;;;57.07;30.37;;;3.20;99.90;;;;;;5029178;28;21080;-49
2020/12/12 03:54:55;;;;;;;66.37;32.33;;;3.20;99.90;;;;;;5027953;28;20491;-49
2020/12/12 03:57:22;;;;;;;57.00;29.27;;;3.20;99.90;;;;;;5011805;28;20995;-48
2020/12/12 03:59:49;;;;;;;59.90;30.27;;;3.20;99.90;;;;;;5009782;28;20511;-50
2020/12/12 04:02:17;;;;;;;58.43;30.87;;;3.20;99.90;;;;;;5005021;28;20511;-49
2020/12/12 04:04:44;;;;;;;61.60;31.43;;;3.10;99.90;;;;;;5007252;28;20531;-49
2020/12/12 04:07:13;;;;;;;59.70;31.27;;;3.20;99.90;;;;;;4991602;28;20488;-49
2020/12/12 04:09:40;;;;;;;59.27;32.67;;;3.20;99.90;;;;;;5018026;28;20893;-48
2020/12/12 04:12:07;;;;;;;61.60;31.13;;;3.20;99.90;;;;;;5028797;28;20534;-48
2020/12/12 04:14:35;;;;;;;62.97;32.10;;;3.20;99.90;;;;;;5023979;28;20899;-49
2020/12/12 04:17:03;;;;;;;61.20;31.63;;;3.20;99.90;;;;;;4989171;28;20902;-49
2020/12/12 04:19:30;;;;;;;60.70;31.90;;;3.10;99.90;;;;;;5002017;28;20532;-49
2020/12/12 04:22:03;;;;;;;57.67;30.30;;;3.20;99.90;;;;;;5009161;28;20507;-49
2020/12/12 04:24:31;;;;;;;61.97;31.93;;;3.20;99.90;;;;;;5007850;28;20557;-49
2020/12/12 04:26:58;;;;;;;57.40;30.23;;;3.10;99.90;;;;;;5008397;28;20484;-48
2020/12/12 04:29:26;;;;;;;59.13;30.83;;;3.20;99.90;;;;;;5017162;28;20483;-50
2020/12/12 04:31:53;;;;;;;55.03;28.97;;;3.20;99.90;;;;;;5028988;28;20546;-48
2020/12/12 04:34:20;;;;;;;59.17;31.53;;;3.10;99.90;;;;;;5028609;28;20915;-48
2020/12/12 04:36:48;;;;;;;57.47;30.90;;;3.10;99.90;;;;;;5024811;28;20496;-49
2020/12/12 04:39:15;;;;;;;61.30;30.47;;;3.10;99.90;;;;;;5009384;28;20568;-49
2020/12/12 04:41:44;;;;;;;55.20;30.53;;;3.10;99.90;;;;;;5008819;28;20889;-49
2020/12/12 04:44:12;;;;;;;58.47;30.93;;;3.10;99.90;;;;;;5009013;28;20904;-48
2020/12/12 04:46:40;;;;;;;55.73;29.90;;;3.10;99.90;;;;;;5008649;28;20504;-49
2020/12/12 04:49:08;;;;;;;62.33;31.20;;;3.10;99.90;;;;;;5008085;28;20534;-48
2020/12/12 04:51:35;;;;;;;56.47;28.43;;;3.10;99.90;;;;;;5008734;28;20512;-49
2020/12/12 04:54:03;;;;;;;56.17;29.10;;;3.10;99.90;;;;;;5008617;28;20482;-48
2020/12/12 04:56:36;;;;;;;53.37;27.93;;;3.10;99.90;;;;;;5007184;28;20480;-48
2020/12/12 04:59:05;;;;;;;53.90;28.47;;;3.00;99.90;;;;;;5005565;28;20487;-48
2020/12/12 05:01:33;;;;;;;56.90;29.73;;;3.00;99.90;;;;;;5006447;28;20485;-48
2020/12/12 05:04:02;;;;;;;58.07;30.73;;;2.90;99.90;;;;;;5008096;28;20472;-48
2020/12/12 05:06:30;;;;;;;56.30;29.53;;;3.00;99.90;;;;;;5008144;28;20477;-49
2020/12/12 05:08:58;;;;;;;58.00;31.17;;;3.00;99.90;;;;;;4989989;28;21080;-49
2020/12/12 05:11:26;;;;;;;52.43;28.50;;;3.10;99.90;;;;;;4989075;28;20477;-48
2020/12/12 05:13:54;;;;;;;52.97;29.53;;;3.10;99.90;;;;;;5008658;28;20475;-48
2020/12/12 05:16:22;;;;;;;53.63;29.97;;;3.10;99.90;;;;;;5008603;28;20807;-48
2020/12/12 05:18:51;;;;;;;56.23;30.07;;;3.00;99.90;;;;;;5007939;28;20828;-49
2020/12/12 05:21:19;;;;;;;55.50;29.13;;;3.00;99.90;;;;;;5008322;28;20501;-48
2020/12/12 05:23:46;;;;;;;56.30;29.80;;;2.90;99.90;;;;;;5007838;28;20476;-49
2020/12/12 05:26:19;;;;;;;53.17;29.03;;;2.90;99.90;;;;;;5011054;28;20563;-49
2020/12/12 05:28:47;;;;;;;58.67;32.07;;;2.90;99.90;;;;;;5008075;28;20907;-50
2020/12/12 05:31:16;;;;;;;55.37;30.87;;;3.00;99.90;;;;;;5008298;28;20536;-48
2020/12/12 05:33:44;;;;;;;55.10;29.10;;;2.90;99.90;;;;;;5008401;28;20499;-49
2020/12/12 05:36:12;;;;;;;56.43;30.20;;;3.00;99.90;;;;;;5007791;28;20532;-48
2020/12/12 05:38:40;;;;;;;55.00;30.13;;;3.00;99.90;;;;;;5008005;28;21218;-48
2020/12/12 05:41:08;;;;;;;56.53;30.70;;;3.00;99.90;;;;;;5007946;28;20567;-48
2020/12/12 05:43:36;;;;;;;58.03;29.97;;;2.90;99.90;;;;;;5008282;28;20552;-47
2020/12/12 05:46:04;;;;;;;54.83;30.37;;;2.90;99.90;;;;;;5016526;28;20830;-48
2020/12/12 05:48:31;;;;;;;59.10;31.07;;;2.90;99.90;;;;;;5025934;28;20492;-49
2020/12/12 05:51:00;;;;;;;55.07;27.73;;;2.90;99.90;;;;;;5027543;28;20513;-50
2020/12/12 05:53:28;;;;;;;63.50;32.73;;;2.90;99.90;;;;;;5028083;28;21058;-48
2020/12/12 05:55:56;;;;;;;56.43;31.07;;;2.80;99.90;;;;;;5005309;28;20472;-48
2020/12/12 05:58:24;;;;;;;56.23;29.27;;;2.90;99.90;;;;;;5006389;28;20582;-48
2020/12/12 06:00:53;;;;;;;61.27;31.93;;;2.90;99.90;;;;;;5005206;28;20996;-48
2020/12/12 06:03:31;;;;;;;61.03;31.43;;;2.90;99.90;;;;;;5011530;28;20860;-48
2020/12/12 06:06:05;;;;;;;59.43;29.67;;;2.90;99.90;;;;;;5014108;28;20549;-50
2020/12/12 06:08:36;;;;;;;59.10;30.50;;;2.90;99.90;;;;;;5011157;28;20868;-48
2020/12/12 06:11:07;;;;;;;56.47;28.63;;;2.90;99.90;;;;;;5011936;28;20491;-48
2020/12/12 06:13:36;;;;;;;55.90;29.90;;;2.90;99.90;;;;;;5011049;28;21084;-48
2020/12/12 06:16:07;;;;;;;64.00;32.40;;;2.90;99.90;;;;;;5006703;28;20981;-48
2020/12/12 06:18:48;;;;;;;62.70;31.33;;;2.90;99.90;;;;;;5011033;28;20486;-48
2020/12/12 06:21:17;;;;;;;59.87;30.17;;;2.90;99.90;;;;;;5011105;28;20539;-48
2020/12/12 06:23:44;;;;;;;58.47;29.53;;;2.90;99.90;;;;;;5013354;28;20906;-48
2020/12/12 06:26:15;;;;;;;60.30;29.67;;;2.90;99.90;;;;;;5027436;28;20236;-49
2020/12/12 06:28:44;;;;;;;61.70;31.67;;;2.90;99.90;;;;;;5030631;28;20486;-48
2020/12/12 06:31:13;;;;;;;61.93;30.97;;;2.90;99.90;;;;;;5030446;28;20480;-49
2020/12/12 06:33:51;;;;;;;60.20;30.50;;;2.80;99.90;;;;;;5024077;28;20771;-48
2020/12/12 06:36:28;;;;;;;62.40;31.20;;;2.90;99.90;;;;;;5005791;28;20466;-48
2020/12/12 06:39:22;;;;;;;64.30;30.20;;;2.90;99.90;;;;;;4994811;28;21024;-49
2020/12/12 06:41:52;;;;;;;64.43;31.17;;;2.90;99.90;;;;;;4990791;28;20493;-48
2020/12/12 06:44:37;;;;;;;62.10;31.63;;;2.90;99.90;;;;;;5007038;28;20483;-48
2020/12/12 06:47:06;;;;;;;63.00;31.80;;;2.90;99.90;;;;;;5030459;28;20558;-50
2020/12/12 06:49:35;;;;;;;71.03;33.03;;;2.90;99.90;;;;;;5029885;28;21142;-48
2020/12/12 06:52:04;;;;;;;63.77;33.37;;;2.90;99.90;;;;;;5022818;28;20472;-49
2020/12/12 06:54:31;;;;;;;68.73;33.13;;;2.90;99.90;;;;;;5022936;28;20477;-48
2020/12/12 06:56:58;;;;;;;68.03;33.30;;;2.90;99.90;;;;;;5021054;28;20476;-48
2020/12/12 06:59:31;;;;;;;69.57;33.23;;;2.90;99.90;;;;;;5016712;28;21045;-49
2020/12/12 07:02:00;;;;;;;68.73;33.73;;;2.80;99.90;;;;;;5017288;28;20480;-48
2020/12/12 07:04:32;;;;;;;68.90;32.30;;;2.80;99.90;;;;;;5013637;28;20463;-49
2020/12/12 07:07:06;;;;;;;77.33;34.43;;;2.80;99.90;;;;;;4998835;28;20987;-49
2020/12/12 07:09:35;;;;;;;70.70;33.50;;;2.80;99.90;;;;;;4999459;28;20498;-49
2020/12/12 07:12:03;;;;;;;75.10;34.00;;;2.80;99.90;;;;;;4990663;28;20474;-50
2020/12/12 07:14:31;;;;;;;70.83;33.20;;;2.80;99.90;;;;;;4996994;28;20483;-49
2020/12/12 07:17:01;;;;;;;75.20;35.30;;;2.80;99.90;;;;;;4998424;28;20479;-48
2020/12/12 07:19:35;;;;;;;74.47;32.90;;;2.80;99.90;;;;;;4998631;28;20492;-49
2020/12/12 07:22:05;;;;;;;69.27;33.70;;;2.80;99.90;;;;;;4999234;28;20497;-48
2020/12/12 07:24:34;;;;;;;73.13;34.67;;;2.80;99.90;;;;;;5006240;28;20486;-48
2020/12/12 07:27:02;;;;;;;72.87;33.43;;;2.70;99.90;;;;;;4999415;28;21638;-48
2020/12/12 07:29:31;;;;;;;72.97;34.93;;;2.70;99.90;;;;;;5006396;28;20573;-49
2020/12/12 07:31:59;;;;;;;80.10;36.03;;;2.70;99.90;;;;;;5007224;28;20488;-48
2020/12/12 07:34:28;;;;;;;77.77;34.13;;;2.70;99.90;;;;;;5007929;28;21031;-48
2020/12/12 07:37:00;;;;;;;78.07;34.33;;;2.70;99.90;;;;;;5027939;28;20560;-48
2020/12/12 07:39:30;;;;;;;79.10;35.97;;;2.70;99.90;;;;;;5018377;28;20473;-49
2020/12/12 07:42:00;;;;;;;89.13;36.80;;;2.70;99.90;;;;;;5027388;28;20480;-48
2020/12/12 07:44:35;;;;;;;81.27;35.67;;;2.70;99.90;;;;;;5026492;28;20476;-49
2020/12/12 07:47:05;;;;;;;83.63;36.77;;;2.80;99.90;;;;;;5027332;28;20463;-49
2020/12/12 07:49:33;;;;;;;83.53;36.80;;;2.70;99.90;;;;;;5026051;28;20564;-49
2020/12/12 07:52:03;;;;;;;80.60;35.73;;;2.70;99.90;;;;;;5002687;28;20551;-48
2020/12/12 07:54:39;;;;;;;78.30;36.80;;;2.60;99.90;;;;;;5009519;28;20990;-48
2020/12/12 07:57:11;;;;;;;91.47;37.20;;;2.60;99.90;;;;;;5009420;28;20477;-48
2020/12/12 07:59:39;;;;;;;77.00;36.90;;;2.70;99.90;;;;;;4992471;28;20537;-48
2020/12/12 08:02:07;;;;;;;81.63;36.73;;;2.70;99.90;;;;;;5002615;28;21005;-48
2020/12/12 08:04:36;;;;;;;84.57;36.73;;;2.70;99.90;;;;;;4997177;28;20511;-48
2020/12/12 08:07:17;;;;;;;79.93;35.30;;;2.70;99.90;;;;;;4997872;28;20950;-51
2020/12/12 08:09:51;;;;;;;85.47;37.60;;;2.60;99.90;;;;;;5011594;28;20538;-48
2020/12/12 08:12:28;;;;;;;81.57;36.77;;;2.60;99.90;;;;;;5018265;28;20513;-48
2020/12/12 08:14:59;;;;;;;83.17;37.53;;;2.60;99.90;;;;;;5018014;28;20548;-48
2020/12/12 08:17:33;;;;;;;84.17;36.13;;;2.70;99.90;;;;;;5015157;28;20470;-49
2020/12/12 08:20:01;;;;;;;83.13;34.87;;;2.70;99.90;;;;;;5016188;28;20483;-48
2020/12/12 08:22:29;;;;;;;85.57;35.43;;;2.70;99.90;;;;;;5016864;28;20557;-48
2020/12/12 08:24:58;;;;;;;77.93;36.43;;;2.60;99.90;;;;;;5026468;28;20552;-48
2020/12/12 08:27:28;;;;;;;86.50;36.63;;;2.60;99.90;;;;;;5026918;28;20491;-48
2020/12/12 08:29:58;;;;;;;85.97;37.57;;;2.60;99.90;;;;;;5026535;28;20537;-48
2020/12/12 08:32:31;;;;;;;90.90;39.70;;;2.70;99.90;;;;;;5026886;28;20492;-48
2020/12/12 08:35:25;;;;;;;82.60;37.70;;;2.70;99.90;;;;;;5022859;28;20890;-50
2020/12/12 08:37:57;;;;;;;84.93;36.50;;;2.70;99.90;;;;;;5016902;28;20471;-48
2020/12/12 08:40:28;;;;;;;81.30;36.33;;;2.70;99.90;;;;;;5017502;28;20488;-48
2020/12/12 08:43:05;;;;;;;91.17;38.57;;;2.60;99.90;;;;;;5016670;28;20472;-48
2020/12/12 08:45:34;;;;;;;85.83;37.13;;;2.70;99.90;;;;;;5020445;28;21047;-48
2020/12/12 08:48:05;;;;;;;91.73;39.17;;;2.70;99.90;;;;;;5020163;28;20484;-48
2020/12/12 08:50:51;;;;;;;79.77;36.93;;;2.70;99.90;;;;;;5001891;28;20481;-48
2020/12/12 08:53:34;;;;;;;84.57;38.67;;;2.70;99.90;;;;;;5002016;28;20992;-49
2020/12/12 08:56:11;;;;;;;86.73;37.60;;;2.70;99.90;;;;;;5002583;28;20544;-48
2020/12/12 08:58:42;;;;;;;82.27;36.93;;;2.80;99.90;;;;;;5009177;28;20531;-48
2020/12/12 09:01:12;;;;;;;76.20;35.47;;;2.70;99.90;;;;;;5006139;28;20469;-48
2020/12/12 09:03:53;;;;;;;80.73;36.77;;;2.80;99.90;;;;;;5006248;28;20533;-49
2020/12/12 09:06:21;;;;;;;74.63;35.37;;;2.80;99.90;;;;;;5008610;28;20476;-48
2020/12/12 09:09:03;;;;;;;80.47;37.17;;;2.70;99.90;;;;;;5022317;28;20451;-48
2020/12/12 09:11:32;;;;;;;82.40;36.83;;;2.70;99.90;;;;;;5009045;28;20497;-48
2020/12/12 09:14:00;;;;;;;77.03;37.77;;;2.70;99.90;;;;;;5014829;28;20479;-48
2020/12/12 09:16:27;;;;;;;75.13;34.50;;;2.70;99.90;;;;;;5020152;28;20483;-48
2020/12/12 09:18:57;;;;;;;82.80;37.73;;;2.70;99.90;;;;;;5017837;28;20484;-48
2020/12/12 09:21:24;;;;;;;85.13;37.40;;;2.70;99.90;;;;;;5003722;28;20531;-48
2020/12/12 09:23:52;;;;;;;78.30;36.33;;;2.70;99.90;;;;;;4996690;28;20486;-48
2020/12/12 09:26:21;;;;;;;81.80;36.87;;;2.80;99.90;;;;;;4995474;28;20531;-49
2020/12/12 09:28:49;;;;;;;76.07;37.00;;;2.80;99.90;;;;;;4994907;28;20562;-48
2020/12/12 09:31:20;;;;;;;79.10;37.33;;;2.70;99.90;;;;;;5002716;28;20545;-48
2020/12/12 09:33:47;;;;;;;80.77;37.40;;;2.80;99.90;;;;;;5001654;28;20495;-49
2020/12/12 09:36:15;;;;;;;77.30;36.40;;;2.80;99.90;;;;;;5006379;28;20477;-48
2020/12/12 09:38:43;;;;;;;77.10;36.77;;;2.80;99.90;;;;;;5008115;28;20495;-48
2020/12/12 09:41:11;;;;;;;76.63;36.77;;;2.80;99.90;;;;;;4989775;28;20581;-48
2020/12/12 09:43:39;;;;;;;79.27;37.33;;;2.90;99.90;;;;;;4989621;28;20508;-48
2020/12/12 09:46:08;;;;;;;76.67;36.77;;;2.80;99.90;;;;;;5002528;28;20573;-51
2020/12/12 09:48:36;;;;;;;80.87;38.30;;;2.90;99.90;;;;;;5004000;28;20496;-48
2020/12/12 09:51:04;;;;;;;73.97;37.10;;;2.90;99.90;;;;;;5001874;28;20481;-48
2020/12/12 09:53:31;;;;;;;75.27;36.87;;;2.90;99.90;;;;;;4997698;28;20534;-49
2020/12/12 09:55:59;;;;;;;74.80;38.17;;;2.90;99.90;;;;;;5014888;28;20506;-50
2020/12/12 09:58:26;;;;;;;73.83;36.77;;;2.90;99.90;;;;;;4998602;28;20512;-49
2020/12/12 10:00:54;;;;;;;72.33;36.30;;;2.90;99.90;;;;;;5002883;28;20476;-49
2020/12/12 10:03:22;;;;;;;73.80;37.23;;;2.90;99.90;;;;;;5010875;28;20478;-48
2020/12/12 10:05:50;;;;;;;75.30;37.77;;;2.90;99.90;;;;;;5007936;28;20489;-50
2020/12/12 10:08:17;;;;;;;76.10;36.40;;;2.90;99.90;;;;;;5025391;28;20480;-48
2020/12/12 10:10:44;;;;;;;79.43;37.30;;;2.90;99.90;;;;;;5000442;28;20550;-48
2020/12/12 10:13:12;;;;;;;74.63;35.93;;;2.90;99.90;;;;;;4999306;28;20631;-49
2020/12/12 10:15:39;;;;;;;75.23;38.17;;;2.90;99.90;;;;;;5011069;28;20538;-48
2020/12/12 10:18:08;;;;;;;75.73;36.87;;;2.90;99.90;;;;;;5010868;28;20476;-48
2020/12/12 10:20:39;;;;;;;76.77;38.13;;;3.00;99.90;;;;;;4993019;28;20590;-50
2020/12/12 10:23:08;;;;;;;77.70;37.90;;;3.00;99.90;;;;;;5005170;28;20766;-49
2020/12/12 10:25:35;;;;;;;77.67;37.03;;;3.00;99.90;;;;;;4989226;28;20482;-48
2020/12/12 10:28:08;;;;;;;78.60;37.23;;;3.00;99.90;;;;;;4990287;28;20999;-49
2020/12/12 10:30:36;;;;;;;86.40;39.60;;;3.10;99.90;;;;;;5009041;28;20832;-48
2020/12/12 10:33:03;;;;;;;82.23;39.30;;;3.10;99.90;;;;;;5009591;28;21005;-48
2020/12/12 10:35:32;;;;;;;76.20;37.10;;;3.00;99.90;;;;;;5009384;28;20498;-50
2020/12/12 10:38:00;;;;;;;79.60;38.97;;;3.10;99.90;;;;;;5010201;28;20473;-49
2020/12/12 10:40:32;;;;;;;83.43;39.67;;;3.00;99.90;;;;;;5008953;28;20488;-48
2020/12/12 10:43:01;;;;;;;76.03;38.37;;;3.10;99.90;;;;;;5004907;28;20547;-49
2020/12/12 10:45:28;;;;;;;77.17;39.43;;;3.10;99.90;;;;;;5010030;28;20480;-48
2020/12/12 10:47:55;;;;;;;77.70;38.67;;;3.20;99.90;;;;;;5006961;28;20474;-48
2020/12/12 10:50:23;;;;;;;80.90;37.77;;;3.10;99.90;;;;;;5008258;28;20869;-49
2020/12/12 10:52:52;;;;;;;79.13;38.67;;;3.10;99.90;;;;;;5010770;28;20476;-48
2020/12/12 10:55:20;;;;;;;77.57;36.83;;;3.10;99.90;;;;;;5010737;28;20490;-48
2020/12/12 10:57:48;;;;;;;80.43;39.13;;;3.20;99.90;;;;;;5010333;28;20477;-48
2020/12/12 11:00:23;;;;;;;78.87;39.07;;;3.20;99.90;;;;;;5009730;28;20488;-48
2020/12/12 11:02:52;;;;;;;82.27;38.17;;;3.20;99.90;;;;;;5010464;28;20866;-49
2020/12/12 11:05:20;;;;;;;77.20;37.20;;;3.20;99.90;;;;;;5010351;28;20501;-48
2020/12/12 11:07:51;;;;;;;76.10;37.40;;;3.20;99.90;;;;;;5010481;28;20477;-48
2020/12/12 11:10:19;;;;;;;79.37;39.67;;;3.20;99.90;;;;;;5006216;28;21087;-48
2020/12/12 11:12:47;;;;;;;75.60;39.23;;;3.20;99.90;;;;;;5006875;28;20487;-48
2020/12/12 11:15:15;;;;;;;78.53;38.80;;;3.20;99.90;;;;;;5010207;28;20484;-48
2020/12/12 11:17:44;;;;;;;74.83;37.83;;;3.30;99.90;;;;;;5010185;28;20480;-52
2020/12/12 11:20:12;;;;;;;74.83;37.87;;;3.30;99.90;;;;;;5009254;28;21014;-49
2020/12/12 11:22:40;;;;;;;70.53;38.43;;;3.30;99.90;;;;;;5009979;28;20531;-48
2020/12/12 11:25:08;;;;;;;69.57;36.37;;;3.30;99.90;;;;;;5010207;28;20478;-48
2020/12/12 11:27:37;;;;;;;70.93;37.47;;;3.30;99.90;;;;;;5009853;28;20480;-48
2020/12/12 11:30:09;;;;;;;68.70;36.80;;;3.40;99.90;;;;;;5009003;28;20483;-48
2020/12/12 11:32:36;;;;;;;71.80;36.20;;;3.40;99.90;;;;;;5010006;28;20480;-49
2020/12/12 11:35:10;;;;;;;76.00;37.10;;;3.40;99.90;;;;;;5009704;28;20513;-49
2020/12/12 11:38:01;;;;;;;69.23;36.23;;;3.40;99.90;;;;;;5008908;28;20475;-49
2020/12/12 11:40:34;;;;;;;73.63;36.60;;;3.40;99.90;;;;;;5004113;28;20526;-48
2020/12/12 11:43:30;;;;;;;71.73;37.03;;;3.40;99.90;;;;;;5007610;28;20480;-48
2020/12/12 11:48:45;;;;;;;72.53;36.87;;;3.40;99.90;;;;;;5008942;28;21320;-49
2020/12/12 11:51:12;;;;;;;68.67;37.00;;;3.50;99.90;;;;;;5009287;28;20487;-48
2020/12/12 11:53:40;;;;;;;74.43;38.17;;;3.40;99.90;;;;;;5009614;28;20486;-48
2020/12/12 11:56:07;;;;;;;71.87;36.23;;;3.50;99.90;;;;;;5008761;28;20541;-49
2020/12/12 11:58:36;;;;;;;67.30;35.37;;;3.50;99.90;;;;;;5003305;28;20521;-48
2020/12/12 12:01:04;;;;;;;72.30;36.53;;;3.50;99.90;;;;;;5019608;28;20499;-48
2020/12/12 12:03:31;;;;;;;69.43;35.10;;;3.50;99.90;;;;;;5025781;28;20513;-49
2020/12/12 12:05:59;;;;;;;71.23;36.20;;;3.50;99.90;;;;;;5029324;28;20477;-48
2020/12/12 12:08:31;;;;;;;71.27;37.27;;;3.50;99.90;;;;;;5025988;28;20495;-48
2020/12/12 12:11:14;;;;;;;65.47;34.73;;;3.50;99.90;;;;;;5026270;28;20529;-48
2020/12/12 12:13:42;;;;;;;64.70;35.07;;;3.60;99.90;;;;;;5020299;28;20532;-48
2020/12/12 12:16:10;;;;;;;64.47;35.33;;;3.60;99.90;;;;;;5016331;28;20861;-48
2020/12/12 12:18:38;;;;;;;72.97;36.40;;;3.60;99.90;;;;;;5018469;28;20564;-49
2020/12/12 12:21:05;;;;;;;65.47;33.50;;;3.60;99.90;;;;;;5018057;28;20497;-48
2020/12/12 12:23:34;;;;;;;71.40;37.47;;;3.70;99.90;;;;;;4997915;28;20539;-48
2020/12/12 12:26:01;;;;;;;64.07;35.57;;;3.70;99.90;;;;;;4998089;28;20483;-49
2020/12/12 12:28:29;;;;;;;61.17;35.63;;;3.70;99.90;;;;;;5003690;28;20472;-49
2020/12/12 12:30:58;;;;;;;67.70;37.00;;;3.60;99.90;;;;;;5005391;28;21035;-49
2020/12/12 12:33:25;;;;;;;70.57;36.37;;;3.60;99.90;;;;;;5025677;28;20503;-53
2020/12/12 12:35:54;;;;;;;65.50;34.43;;;3.70;99.90;;;;;;5023479;28;20550;-49
2020/12/12 12:38:22;;;;;;;71.13;36.30;;;3.70;99.90;;;;;;5011210;28;20490;-49
2020/12/12 12:40:51;;;;;;;65.90;35.43;;;3.70;99.90;;;;;;5004515;28;20983;-49
2020/12/12 12:43:18;;;;;;;57.27;32.80;;;3.70;99.90;;;;;;5000567;28;20544;-48
2020/12/12 12:45:46;;;;;;;64.73;35.67;;;3.70;99.90;;;;;;5004957;28;20487;-49
2020/12/12 12:48:14;;;;;;;59.97;33.63;;;3.70;99.90;;;;;;5008368;28;20857;-50